Vallejo, California
Current Conditions -  °F | °C
As of 2:54 PM on Tuesday 25 Nov 2014 (Local Time) from KAPC Reporting Station
Clear Clear  
Wind Chill: 65°   Ceiling: Unl
Heat Index: 65°   Visibility: 10mi
Dew Point: 46°   Wind: 14mph
Humidity: 50%   Direction: 100°E
Pressure: 30.38"   Gusts: NA
Location:  38.1°N, 122.25°W
Report Text: KAPC 252254Z AUTO 10012KT 10SM CLR 18/08 A3038 RMK AO2 SLP277 T01830078
Loading
Personal Weather Stations






























Interactive Weather Map New forecast layout! Learn more

10-Day Weather Forecast

Advertisements
Track Severe Weather on mobile